Time;durP1;ratioP1;P1;durP2;ratioP2;P2;SDS_P1;SDS_P2;PMS_P1;PMS_P2;Temp;Humidity;BMP_temperature;BMP_pressure;BME280_temperature;BME280_humidity;BME280_pressure;Samples;Min_cycle;Max_cycle;Signal;HPM_P1;HPM_P2
2022/12/24 00:01:09;;;;;;;19.87;5.43;;;;;;;;;;5052765;28;20205;-72
2022/12/24 00:03:38;;;;;;;24.90;5.23;;;;;;;;;;5077121;22;20249;-71
2022/12/24 00:06:08;;;;;;;28.10;6.00;;;;;;;;;;5070134;28;20182;-71
2022/12/24 00:08:35;;;;;;;25.63;6.17;;;;;;;;;;5070038;28;20197;-72
2022/12/24 00:11:01;;;;;;;24.40;5.77;;;;;;;;;;5069954;28;20182;-72
2022/12/24 00:13:27;;;;;;;27.43;5.97;;;;;;;;;;5070115;28;20221;-72
2022/12/24 00:15:53;;;;;;;25.57;6.07;;;;;;;;;;5054264;28;20208;-72
2022/12/24 00:18:19;;;;;;;22.50;5.53;;;;;;;;;;5054548;28;20184;-72
2022/12/24 00:20:48;;;;;;;25.17;6.13;;;;;;;;;;5053014;28;20641;-72
2022/12/24 00:23:15;;;;;;;22.90;6.20;;;;;;;;;;5054155;28;20182;-71
2022/12/24 00:25:41;;;;;;;25.90;6.27;;;;;;;;;;5054290;28;20228;-71
2022/12/24 00:28:07;;;;;;;22.20;5.57;;;;;;;;;;5053050;28;20182;-71
2022/12/24 00:30:32;;;;;;;25.63;7.00;;;;;;;;;;5052855;28;20181;-72
2022/12/24 00:32:58;;;;;;;28.77;7.07;;;;;;;;;;5053759;28;20209;-71
2022/12/24 00:35:25;;;;;;;25.10;6.37;;;;;;;;;;5053924;28;20194;-72
2022/12/24 00:37:50;;;;;;;28.53;6.00;;;;;;;;;;5053963;28;20179;-72
2022/12/24 00:40:17;;;;;;;27.53;6.80;;;;;;;;;;5054240;28;20227;-72
2022/12/24 00:42:43;;;;;;;29.80;6.33;;;;;;;;;;5053869;28;20185;-72
2022/12/24 00:45:10;;;;;;;25.07;6.03;;;;;;;;;;5052495;28;20202;-72
2022/12/24 00:47:35;;;;;;;28.80;6.47;;;;;;;;;;5052528;28;20182;-72
2022/12/24 00:50:01;;;;;;;26.43;6.40;;;;;;;;;;5053854;28;20750;-72
2022/12/24 00:52:27;;;;;;;26.83;6.50;;;;;;;;;;5052570;28;20747;-72
2022/12/24 00:54:53;;;;;;;26.70;6.33;;;;;;;;;;5052452;28;20221;-72
2022/12/24 00:57:19;;;;;;;33.07;6.50;;;;;;;;;;5052379;28;20288;-72
2022/12/24 00:59:45;;;;;;;33.57;7.17;;;;;;;;;;5053879;28;20167;-72
2022/12/24 01:02:11;;;;;;;30.63;6.67;;;;;;;;;;5054184;28;20174;-71
2022/12/24 01:07:22;;;;;;;32.27;7.10;;;;;;;;;;5073954;28;20166;-71
2022/12/24 01:09:47;;;;;;;34.17;7.63;;;;;;;;;;5083184;28;20177;-73
2022/12/24 01:12:13;;;;;;;37.83;7.50;;;;;;;;;;5085445;28;20170;-72
2022/12/24 01:14:39;;;;;;;28.90;6.23;;;;;;;;;;5077167;28;20564;-71
2022/12/24 01:17:05;;;;;;;28.07;6.70;;;;;;;;;;5073532;28;20170;-71
2022/12/24 01:19:31;;;;;;;35.70;7.70;;;;;;;;;;5072143;28;20323;-70
2022/12/24 01:21:58;;;;;;;34.00;6.80;;;;;;;;;;5074044;28;20622;-72
2022/12/24 01:24:24;;;;;;;36.93;7.30;;;;;;;;;;5073496;28;20204;-72
2022/12/24 01:26:49;;;;;;;39.57;7.50;;;;;;;;;;5072257;28;20213;-71
2022/12/24 01:29:16;;;;;;;34.67;5.90;;;;;;;;;;5073380;28;20178;-72
2022/12/24 01:31:42;;;;;;;30.87;6.27;;;;;;;;;;5073459;28;20185;-72
2022/12/24 01:34:08;;;;;;;39.13;7.63;;;;;;;;;;5073547;28;20213;-72
2022/12/24 01:36:34;;;;;;;32.73;6.87;;;;;;;;;;5077383;28;20189;-71
2022/12/24 01:38:59;;;;;;;31.77;6.90;;;;;;;;;;5077395;28;20178;-71
2022/12/24 01:44:30;;;;;;;26.33;6.10;;;;;;;;;;5077189;28;20208;-72
2022/12/24 01:47:11;;;;;;;31.57;7.70;;;;;;;;;;5077396;28;20190;-72
2022/12/24 01:49:38;;;;;;;30.50;7.00;;;;;;;;;;5075840;28;20228;-72
2022/12/24 01:52:06;;;;;;;34.97;7.00;;;;;;;;;;5076959;28;20182;-72
2022/12/24 01:54:35;;;;;;;38.07;7.00;;;;;;;;;;5075562;28;20624;-71
2022/12/24 01:57:06;;;;;;;29.90;7.40;;;;;;;;;;5075628;28;20558;-72
2022/12/24 01:59:32;;;;;;;31.17;7.53;;;;;;;;;;5075513;28;20184;-72
2022/12/24 02:01:58;;;;;;;39.30;8.37;;;;;;;;;;5075423;28;20178;-72
2022/12/24 02:04:24;;;;;;;31.77;7.13;;;;;;;;;;5075162;28;20593;-70
2022/12/24 02:06:50;;;;;;;37.63;7.73;;;;;;;;;;5076819;28;20178;-72
2022/12/24 02:09:16;;;;;;;27.83;6.27;;;;;;;;;;5076566;28;20178;-71
2022/12/24 02:11:43;;;;;;;39.47;8.60;;;;;;;;;;5076973;28;20626;-72
2022/12/24 02:14:10;;;;;;;34.50;7.63;;;;;;;;;;5076305;28;20210;-71
2022/12/24 02:16:54;;;;;;;33.37;7.30;;;;;;;;;;5076986;28;20256;-72
2022/12/24 02:19:39;;;;;;;35.30;7.23;;;;;;;;;;5076612;28;20180;-72
2022/12/24 02:22:23;;;;;;;38.87;8.17;;;;;;;;;;5075451;28;20759;-72
2022/12/24 02:25:08;;;;;;;32.73;6.60;;;;;;;;;;5076359;28;20194;-72
2022/12/24 02:27:57;;;;;;;37.87;7.60;;;;;;;;;;5076417;28;20174;-72
2022/12/24 02:30:41;;;;;;;38.57;8.30;;;;;;;;;;5067237;28;20606;-72
2022/12/24 02:33:11;;;;;;;37.43;7.17;;;;;;;;;;5076420;28;20744;-72
2022/12/24 02:35:44;;;;;;;33.33;7.23;;;;;;;;;;5076068;28;20249;-72
2022/12/24 02:38:14;;;;;;;36.47;7.93;;;;;;;;;;5083203;28;20178;-73
2022/12/24 02:40:42;;;;;;;34.77;7.43;;;;;;;;;;5088692;28;20166;-72
2022/12/24 02:43:14;;;;;;;38.40;7.57;;;;;;;;;;5080255;28;20260;-72
2022/12/24 02:45:42;;;;;;;35.27;7.10;;;;;;;;;;5075699;28;20181;-72
2022/12/24 02:48:08;;;;;;;37.20;7.17;;;;;;;;;;5075859;28;20189;-71
2022/12/24 02:50:35;;;;;;;30.97;6.90;;;;;;;;;;5075700;28;20610;-72
2022/12/24 02:53:01;;;;;;;35.43;6.83;;;;;;;;;;5074484;28;20236;-72
2022/12/24 02:55:45;;;;;;;33.27;6.73;;;;;;;;;;5074805;28;20202;-72
2022/12/24 02:58:14;;;;;;;46.60;8.87;;;;;;;;;;5075355;28;20618;-76
2022/12/24 03:00:49;;;;;;;36.57;7.17;;;;;;;;;;5075304;28;20181;-75
2022/12/24 03:03:23;;;;;;;35.10;8.00;;;;;;;;;;5074683;28;20177;-73
2022/12/24 03:05:51;;;;;;;44.23;7.70;;;;;;;;;;5076256;28;20189;-72
2022/12/24 03:08:20;;;;;;;37.07;6.30;;;;;;;;;;5083732;28;20216;-73
2022/12/24 03:10:51;;;;;;;36.53;7.43;;;;;;;;;;5094704;28;20178;-72
2022/12/24 03:13:18;;;;;;;34.50;7.47;;;;;;;;;;5093384;28;20200;-71
2022/12/24 03:15:45;;;;;;;40.40;7.63;;;;;;;;;;5089858;28;20181;-73
2022/12/24 03:18:13;;;;;;;31.07;6.97;;;;;;;;;;5075367;28;20197;-72
2022/12/24 03:20:41;;;;;;;38.17;8.03;;;;;;;;;;5075840;28;20178;-73
2022/12/24 03:23:07;;;;;;;36.53;7.33;;;;;;;;;;5073959;28;20181;-70
2022/12/24 03:25:33;;;;;;;35.23;7.57;;;;;;;;;;5075328;28;20209;-72
2022/12/24 03:28:01;;;;;;;32.73;7.03;;;;;;;;;;5073996;28;20177;-73
2022/12/24 03:30:27;;;;;;;36.97;7.20;;;;;;;;;;5074975;28;20181;-72
2022/12/24 03:32:53;;;;;;;32.27;7.00;;;;;;;;;;5075601;28;20198;-72
2022/12/24 03:35:20;;;;;;;31.90;7.90;;;;;;;;;;5073715;28;20205;-73
2022/12/24 03:37:45;;;;;;;29.30;6.27;;;;;;;;;;5075258;28;20206;-72
2022/12/24 03:40:12;;;;;;;39.20;7.73;;;;;;;;;;5074986;28;20243;-73
2022/12/24 03:42:38;;;;;;;39.03;7.50;;;;;;;;;;5073677;28;20251;-72
2022/12/24 03:45:04;;;;;;;37.00;6.33;;;;;;;;;;5074902;28;20598;-74
2022/12/24 03:47:30;;;;;;;37.23;5.83;;;;;;;;;;5073597;28;20261;-73
2022/12/24 03:49:56;;;;;;;34.63;7.27;;;;;;;;;;5073633;28;20196;-72
2022/12/24 03:52:22;;;;;;;32.80;6.80;;;;;;;;;;5075180;28;20654;-72
2022/12/24 03:54:48;;;;;;;28.80;6.60;;;;;;;;;;5074445;28;20200;-73
2022/12/24 03:57:14;;;;;;;32.40;7.10;;;;;;;;;;5072494;28;20227;-72
2022/12/24 03:59:40;;;;;;;32.07;7.67;;;;;;;;;;5075218;28;20542;-72
2022/12/24 04:02:06;;;;;;;33.40;6.87;;;;;;;;;;5073421;28;20178;-72
2022/12/24 04:04:35;;;;;;;41.50;7.77;;;;;;;;;;5073072;28;20213;-72
2022/12/24 04:07:01;;;;;;;28.03;6.47;;;;;;;;;;5079644;28;20166;-72
2022/12/24 04:09:27;;;;;;;35.07;6.70;;;;;;;;;;5086736;28;20173;-72
2022/12/24 04:11:53;;;;;;;29.17;7.27;;;;;;;;;;5079027;28;20181;-72
2022/12/24 04:14:19;;;;;;;34.37;6.83;;;;;;;;;;5072778;28;20210;-72
2022/12/24 04:16:45;;;;;;;23.93;6.07;;;;;;;;;;5074530;28;20220;-71
2022/12/24 04:19:11;;;;;;;22.63;5.80;;;;;;;;;;5073120;28;20181;-73
2022/12/24 04:21:37;;;;;;;27.40;7.10;;;;;;;;;;5073184;28;20178;-72
2022/12/24 04:24:03;;;;;;;31.53;7.00;;;;;;;;;;5074518;28;20194;-72
2022/12/24 04:26:29;;;;;;;26.50;5.17;;;;;;;;;;5073974;28;20652;-72
2022/12/24 04:28:55;;;;;;;23.13;5.57;;;;;;;;;;5073093;28;20182;-73
2022/12/24 04:31:21;;;;;;;29.97;6.50;;;;;;;;;;5073968;28;20181;-72
2022/12/24 04:33:47;;;;;;;20.37;5.57;;;;;;;;;;5074091;28;20241;-72
2022/12/24 04:36:15;;;;;;;25.40;5.63;;;;;;;;;;5073980;28;20257;-72
2022/12/24 04:38:41;;;;;;;20.53;4.70;;;;;;;;;;5072653;28;20174;-72
2022/12/24 04:41:15;;;;;;;28.00;6.30;;;;;;;;;;5072741;28;20545;-72
2022/12/24 04:43:41;;;;;;;23.10;5.13;;;;;;;;;;5073775;28;20536;-72
2022/12/24 04:46:08;;;;;;;23.63;5.90;;;;;;;;;;5072580;28;20186;-73
2022/12/24 04:48:34;;;;;;;17.83;4.63;;;;;;;;;;5074087;28;20699;-72
2022/12/24 04:51:02;;;;;;;24.77;5.23;;;;;;;;;;5072663;28;20185;-72
2022/12/24 04:53:28;;;;;;;18.90;5.43;;;;;;;;;;5073660;28;20213;-72
2022/12/24 04:55:53;;;;;;;18.67;4.73;;;;;;;;;;5072686;28;20699;-73
2022/12/24 04:58:19;;;;;;;15.00;4.63;;;;;;;;;;5074155;28;20174;-72
2022/12/24 05:00:45;;;;;;;21.53;5.37;;;;;;;;;;5072301;28;20192;-72
2022/12/24 05:03:11;;;;;;;23.83;5.27;;;;;;;;;;5073576;28;20185;-73
2022/12/24 05:05:37;;;;;;;20.40;5.37;;;;;;;;;;5073856;28;20211;-72
2022/12/24 05:08:03;;;;;;;18.27;4.47;;;;;;;;;;5072462;28;20189;-73
2022/12/24 05:10:29;;;;;;;26.10;5.77;;;;;;;;;;5078228;28;20254;-72
2022/12/24 05:12:55;;;;;;;18.83;5.63;;;;;;;;;;5078340;28;20290;-72
2022/12/24 05:15:21;;;;;;;25.03;5.80;;;;;;;;;;5077129;28;20193;-72
2022/12/24 05:17:47;;;;;;;23.70;4.73;;;;;;;;;;5078137;28;20170;-72
2022/12/24 05:20:13;;;;;;;24.93;6.40;;;;;;;;;;5076519;28;20182;-72
2022/12/24 05:28:08;;;;;;;21.30;5.37;;;;;;;;;;5077715;28;20181;-72
2022/12/24 05:30:34;;;;;;;21.10;5.50;;;;;;;;;;5077323;28;20178;-72
2022/12/24 05:33:00;;;;;;;17.33;4.67;;;;;;;;;;5075735;28;20221;-72
2022/12/24 05:35:26;;;;;;;26.23;5.20;;;;;;;;;;5076142;28;20193;-72
2022/12/24 05:37:52;;;;;;;26.47;6.27;;;;;;;;;;5076009;28;20230;-70
2022/12/24 05:40:18;;;;;;;20.47;5.70;;;;;;;;;;5075825;28;20226;-71
2022/12/24 05:42:44;;;;;;;26.20;5.53;;;;;;;;;;5077497;28;20178;-71
2022/12/24 05:45:10;;;;;;;21.33;5.23;;;;;;;;;;5075859;28;20201;-70
2022/12/24 05:47:35;;;;;;;24.50;6.37;;;;;;;;;;5075919;28;20185;-71
2022/12/24 05:50:01;;;;;;;28.10;6.23;;;;;;;;;;5077332;28;20554;-71
2022/12/24 05:52:27;;;;;;;23.03;5.30;;;;;;;;;;5077275;28;20648;-71
2022/12/24 05:54:53;;;;;;;26.03;5.90;;;;;;;;;;5087921;28;20196;-70
2022/12/24 05:57:19;;;;;;;25.67;5.90;;;;;;;;;;5087149;28;20201;-70
2022/12/24 05:59:47;;;;;;;25.40;5.70;;;;;;;;;;5087329;28;20184;-70
2022/12/24 06:02:13;;;;;;;19.87;5.10;;;;;;;;;;5087390;28;20316;-71
2022/12/24 06:04:39;;;;;;;27.90;6.73;;;;;;;;;;5087862;28;20209;-70
2022/12/24 06:07:05;;;;;;;21.03;5.33;;;;;;;;;;5087045;28;20607;-71
2022/12/24 06:09:31;;;;;;;25.93;5.87;;;;;;;;;;5087794;28;20170;-71
2022/12/24 06:11:57;;;;;;;28.87;6.13;;;;;;;;;;5085664;28;20231;-71
2022/12/24 06:14:23;;;;;;;15.50;4.93;;;;;;;;;;5116242;22;20233;-70
2022/12/24 06:16:49;;;;;;;25.13;5.67;;;;;;;;;;5098431;28;20177;-69
2022/12/24 06:19:15;;;;;;;24.83;5.40;;;;;;;;;;5079273;28;20180;-70
2022/12/24 06:21:41;;;;;;;25.60;5.90;;;;;;;;;;5096019;28;20248;-69
2022/12/24 06:24:07;;;;;;;21.93;5.23;;;;;;;;;;5078595;28;20254;-69
2022/12/24 06:26:33;;;;;;;22.50;5.40;;;;;;;;;;5078576;28;20181;-70
2022/12/24 06:28:59;;;;;;;22.63;5.90;;;;;;;;;;5078572;28;20188;-70
2022/12/24 06:31:25;;;;;;;23.30;5.57;;;;;;;;;;5078837;28;20188;-70
2022/12/24 06:33:51;;;;;;;20.60;5.97;;;;;;;;;;5097197;28;20209;-70
2022/12/24 06:36:19;;;;;;;24.73;5.70;;;;;;;;;;5079273;28;20185;-70
2022/12/24 06:38:45;;;;;;;23.50;5.00;;;;;;;;;;5079526;28;20181;-70
2022/12/24 06:41:11;;;;;;;21.00;5.00;;;;;;;;;;5097752;28;20289;-70
2022/12/24 06:43:37;;;;;;;20.17;4.90;;;;;;;;;;5079000;28;20304;-70
2022/12/24 06:46:04;;;;;;;33.33;5.90;;;;;;;;;;5078957;28;20177;-70
2022/12/24 06:48:30;;;;;;;19.57;5.87;;;;;;;;;;5078400;28;20185;-69
2022/12/24 06:50:56;;;;;;;20.43;5.83;;;;;;;;;;5096643;28;20177;-70
2022/12/24 06:53:22;;;;;;;21.63;6.07;;;;;;;;;;5078442;28;20223;-70
2022/12/24 06:55:48;;;;;;;20.63;5.27;;;;;;;;;;5078525;28;20718;-69
2022/12/24 06:58:14;;;;;;;21.10;6.13;;;;;;;;;;5097219;28;20180;-69
2022/12/24 07:00:40;;;;;;;24.20;5.83;;;;;;;;;;5096561;28;20185;-70
2022/12/24 07:03:06;;;;;;;34.17;7.27;;;;;;;;;;5096014;28;20200;-70
2022/12/24 07:05:32;;;;;;;25.97;5.90;;;;;;;;;;5078125;28;20185;-69
2022/12/24 07:07:58;;;;;;;30.17;6.60;;;;;;;;;;5097096;28;20229;-70
2022/12/24 07:10:23;;;;;;;23.13;5.83;;;;;;;;;;5077337;28;20637;-69
2022/12/24 07:12:49;;;;;;;19.67;6.30;;;;;;;;;;5077310;28;20220;-70
2022/12/24 07:15:16;;;;;;;26.03;6.70;;;;;;;;;;5096010;28;20617;-69
2022/12/24 07:17:42;;;;;;;22.27;6.47;;;;;;;;;;5095744;28;20717;-70
2022/12/24 07:20:09;;;;;;;26.33;6.27;;;;;;;;;;5077616;28;20226;-69
2022/12/24 07:22:35;;;;;;;26.47;6.33;;;;;;;;;;5095683;28;20177;-70
2022/12/24 07:25:01;;;;;;;26.93;6.17;;;;;;;;;;5095326;28;20197;-70
2022/12/24 07:27:27;;;;;;;35.83;6.77;;;;;;;;;;5076916;28;20212;-68
2022/12/24 07:29:53;;;;;;;37.23;7.57;;;;;;;;;;5095050;28;20211;-70
2022/12/24 07:32:20;;;;;;;27.67;6.27;;;;;;;;;;5094191;28;20181;-71
2022/12/24 07:34:46;;;;;;;29.43;6.20;;;;;;;;;;5077339;28;20200;-70
2022/12/24 07:37:12;;;;;;;26.27;6.20;;;;;;;;;;5077137;28;20169;-70
2022/12/24 07:39:38;;;;;;;29.00;5.87;;;;;;;;;;5095322;28;20184;-69
2022/12/24 07:42:06;;;;;;;29.30;7.33;;;;;;;;;;5095152;28;20173;-69
2022/12/24 07:44:32;;;;;;;25.83;6.27;;;;;;;;;;5076779;28;20197;-69
2022/12/24 07:46:58;;;;;;;33.83;6.50;;;;;;;;;;5095351;28;20266;-70
2022/12/24 07:49:24;;;;;;;30.93;6.80;;;;;;;;;;5095119;28;20185;-69
2022/12/24 07:51:50;;;;;;;27.87;6.70;;;;;;;;;;5076950;28;20177;-70
2022/12/24 07:54:16;;;;;;;28.40;6.90;;;;;;;;;;5094825;28;20753;-69
2022/12/24 07:56:42;;;;;;;24.20;6.93;;;;;;;;;;5076697;28;20653;-69
2022/12/24 07:59:10;;;;;;;24.57;5.80;;;;;;;;;;5099592;28;20257;-69
2022/12/24 08:01:35;;;;;;;27.80;6.80;;;;;;;;;;5095500;28;20175;-70
2022/12/24 08:04:01;;;;;;;33.77;8.10;;;;;;;;;;5095255;28;20748;-70
2022/12/24 08:06:27;;;;;;;24.80;6.70;;;;;;;;;;5095452;28;20207;-70
2022/12/24 08:08:53;;;;;;;31.63;7.90;;;;;;;;;;5094662;28;20534;-70
2022/12/24 08:11:19;;;;;;;38.13;8.10;;;;;;;;;;5094633;28;20618;-70
2022/12/24 08:13:45;;;;;;;20.30;5.63;;;;;;;;;;5094719;28;20219;-70
2022/12/24 08:16:11;;;;;;;35.60;6.60;;;;;;;;;;5094639;28;20182;-70
2022/12/24 08:18:37;;;;;;;32.10;7.27;;;;;;;;;;5076506;28;20173;-72
2022/12/24 08:21:06;;;;;;;32.87;6.37;;;;;;;;;;5094553;28;20184;-71
2022/12/24 08:23:32;;;;;;;33.90;7.43;;;;;;;;;;5094723;28;20193;-70
2022/12/24 08:25:58;;;;;;;34.67;7.43;;;;;;;;;;5094769;28;20184;-70
2022/12/24 08:28:24;;;;;;;33.93;6.57;;;;;;;;;;5094730;28;20179;-70
2022/12/24 08:30:50;;;;;;;28.97;6.90;;;;;;;;;;5094414;28;20187;-70
2022/12/24 08:33:16;;;;;;;37.90;7.07;;;;;;;;;;5094289;28;20213;-70
2022/12/24 08:35:47;;;;;;;31.23;6.97;;;;;;;;;;5076099;28;20271;-70
2022/12/24 08:38:13;;;;;;;30.23;5.97;;;;;;;;;;5076299;28;20204;-70
2022/12/24 08:40:39;;;;;;;34.80;6.77;;;;;;;;;;5094322;28;20173;-71
2022/12/24 08:43:05;;;;;;;35.50;8.20;;;;;;;;;;5075797;28;20200;-71
2022/12/24 08:45:31;;;;;;;29.70;6.93;;;;;;;;;;5094411;28;20177;-70
2022/12/24 08:47:59;;;;;;;31.67;7.33;;;;;;;;;;5075884;28;20257;-70
2022/12/24 08:50:25;;;;;;;28.67;7.77;;;;;;;;;;5077436;28;20641;-72
2022/12/24 08:52:51;;;;;;;33.47;6.77;;;;;;;;;;5075893;28;20196;-70
2022/12/24 08:55:17;;;;;;;31.00;7.30;;;;;;;;;;5076547;28;20177;-70
2022/12/24 08:57:43;;;;;;;37.43;6.97;;;;;;;;;;5076035;28;20259;-70
2022/12/24 09:00:09;;;;;;;31.13;6.87;;;;;;;;;;5094467;28;20656;-70
2022/12/24 09:02:35;;;;;;;29.30;7.00;;;;;;;;;;5094593;28;20234;-71
2022/12/24 09:05:01;;;;;;;31.37;7.60;;;;;;;;;;5094110;28;20197;-70
2022/12/24 09:07:27;;;;;;;34.40;7.37;;;;;;;;;;5093989;28;20706;-70
2022/12/24 09:09:53;;;;;;;32.77;6.40;;;;;;;;;;5075715;28;20184;-70
2022/12/24 09:12:18;;;;;;;27.73;7.27;;;;;;;;;;5093904;28;20185;-70
2022/12/24 09:14:44;;;;;;;38.53;7.53;;;;;;;;;;5093933;28;20212;-70
2022/12/24 09:17:10;;;;;;;29.97;6.60;;;;;;;;;;5094434;28;20180;-70
2022/12/24 09:19:36;;;;;;;34.50;7.67;;;;;;;;;;5076784;28;20177;-70
2022/12/24 09:22:02;;;;;;;37.93;7.70;;;;;;;;;;5095372;28;20178;-70
2022/12/24 09:24:28;;;;;;;28.80;6.83;;;;;;;;;;5077741;28;20219;-71
2022/12/24 09:26:54;;;;;;;32.70;6.67;;;;;;;;;;5095062;28;20181;-70
2022/12/24 09:29:20;;;;;;;24.80;6.17;;;;;;;;;;5076433;28;20185;-70
2022/12/24 09:31:46;;;;;;;41.10;7.23;;;;;;;;;;5075780;28;20215;-70
2022/12/24 09:34:12;;;;;;;38.93;6.87;;;;;;;;;;5093694;28;20205;-70
2022/12/24 09:36:38;;;;;;;33.10;7.27;;;;;;;;;;5075569;28;20671;-70
2022/12/24 09:39:04;;;;;;;32.10;6.80;;;;;;;;;;5076424;28;20613;-71
2022/12/24 09:41:38;;;;;;;32.17;7.43;;;;;;;;;;5079481;28;20181;-71
2022/12/24 09:44:14;;;;;;;33.70;7.43;;;;;;;;;;5096494;28;20193;-71
2022/12/24 09:46:43;;;;;;;32.43;6.60;;;;;;;;;;5095339;28;20242;-71
2022/12/24 09:49:13;;;;;;;31.13;8.03;;;;;;;;;;5077524;28;20185;-70
2022/12/24 09:51:43;;;;;;;30.97;6.83;;;;;;;;;;5095407;28;20169;-71
2022/12/24 09:54:12;;;;;;;33.70;6.90;;;;;;;;;;5094837;28;20209;-70
2022/12/24 09:56:40;;;;;;;38.23;6.97;;;;;;;;;;5079000;28;20671;-70
2022/12/24 09:59:09;;;;;;;34.17;7.97;;;;;;;;;;5097844;28;20169;-70
2022/12/24 10:01:35;;;;;;;25.20;7.00;;;;;;;;;;5099157;28;20200;-71
2022/12/24 10:04:04;;;;;;;23.33;6.60;;;;;;;;;;5097973;28;20197;-70
2022/12/24 10:06:36;;;;;;;27.17;6.77;;;;;;;;;;5080409;28;20189;-71
2022/12/24 10:09:15;;;;;;;37.47;7.83;;;;;;;;;;5098599;28;20177;-71
2022/12/24 10:11:51;;;;;;;28.23;7.17;;;;;;;;;;5099215;28;20199;-71
2022/12/24 10:14:39;;;;;;;36.80;8.73;;;;;;;;;;5099129;28;20217;-71
2022/12/24 10:17:24;;;;;;;25.60;6.80;;;;;;;;;;5081292;28;20264;-71
2022/12/24 10:20:16;;;;;;;30.87;6.70;;;;;;;;;;5098926;28;20205;-70
2022/12/24 10:22:42;;;;;;;41.80;7.70;;;;;;;;;;5074493;28;20220;-71
2022/12/24 10:25:11;;;;;;;27.30;6.87;;;;;;;;;;5097657;28;20181;-70
2022/12/24 10:27:41;;;;;;;34.00;7.80;;;;;;;;;;5079157;28;20208;-71
2022/12/24 10:30:15;;;;;;;31.57;7.80;;;;;;;;;;5078556;28;20643;-70
2022/12/24 10:32:41;;;;;;;36.00;8.03;;;;;;;;;;5097901;28;20197;-72
2022/12/24 10:35:13;;;;;;;26.30;6.13;;;;;;;;;;5079614;28;20205;-71
2022/12/24 10:37:40;;;;;;;29.10;7.47;;;;;;;;;;5096185;28;20181;-70
2022/12/24 10:40:06;;;;;;;31.40;7.27;;;;;;;;;;5095974;28;20173;-71
2022/12/24 10:42:38;;;;;;;24.40;5.57;;;;;;;;;;5096072;28;20273;-70
2022/12/24 10:45:05;;;;;;;30.20;8.00;;;;;;;;;;5096817;28;20232;-71
2022/12/24 10:47:33;;;;;;;27.27;6.93;;;;;;;;;;5096226;28;20667;-70
2022/12/24 10:50:04;;;;;;;31.27;7.30;;;;;;;;;;5078519;28;20177;-70
2022/12/24 10:52:33;;;;;;;25.13;6.90;;;;;;;;;;5077933;28;20648;-71
2022/12/24 10:55:05;;;;;;;35.90;8.60;;;;;;;;;;5096588;28;20216;-70
2022/12/24 10:57:31;;;;;;;30.57;7.80;;;;;;;;;;5078062;28;20177;-70
2022/12/24 10:59:57;;;;;;;38.83;7.87;;;;;;;;;;5095912;28;20177;-70
2022/12/24 11:02:37;;;;;;;29.90;7.87;;;;;;;;;;5077705;28;20173;-70
2022/12/24 11:05:05;;;;;;;36.33;8.27;;;;;;;;;;5095908;28;20188;-70
2022/12/24 11:07:31;;;;;;;36.27;8.33;;;;;;;;;;5095447;28;20177;-71
2022/12/24 11:09:59;;;;;;;33.63;8.63;;;;;;;;;;5096131;28;20223;-71
2022/12/24 11:12:27;;;;;;;28.53;8.07;;;;;;;;;;5095661;28;20260;-71
2022/12/24 11:15:07;;;;;;;35.20;10.00;;;;;;;;;;5095923;28;20284;-71
2022/12/24 11:17:33;;;;;;;37.73;9.03;;;;;;;;;;5078334;28;20180;-71
2022/12/24 11:20:02;;;;;;;31.97;7.60;;;;;;;;;;5096312;28;20177;-70
2022/12/24 11:22:29;;;;;;;33.60;7.87;;;;;;;;;;5078190;28;20569;-70
2022/12/24 11:25:15;;;;;;;40.33;7.50;;;;;;;;;;5101034;28;20197;-71
2022/12/24 11:27:44;;;;;;;27.80;6.73;;;;;;;;;;5087177;28;20193;-71
2022/12/24 11:30:16;;;;;;;39.00;7.37;;;;;;;;;;5096603;28;20177;-71
2022/12/24 11:32:43;;;;;;;34.50;7.67;;;;;;;;;;5077766;28;20691;-71
2022/12/24 11:35:15;;;;;;;29.73;7.33;;;;;;;;;;5077490;28;20177;-70
2022/12/24 11:37:41;;;;;;;39.77;8.83;;;;;;;;;;5077928;28;20268;-70
2022/12/24 11:40:19;;;;;;;32.97;7.07;;;;;;;;;;5077622;28;20181;-71
2022/12/24 11:42:44;;;;;;;33.20;9.00;;;;;;;;;;5095613;28;20643;-71
2022/12/24 11:45:18;;;;;;;48.00;8.93;;;;;;;;;;5077701;28;20276;-71
2022/12/24 11:47:45;;;;;;;34.13;8.17;;;;;;;;;;5077818;28;20253;-70
2022/12/24 11:50:30;;;;;;;27.60;8.40;;;;;;;;;;5077624;28;20181;-70
2022/12/24 11:53:02;;;;;;;31.37;6.83;;;;;;;;;;5077476;28;20211;-70
2022/12/24 11:55:37;;;;;;;30.67;7.07;;;;;;;;;;5095850;28;20169;-70
2022/12/24 11:58:16;;;;;;;28.93;6.97;;;;;;;;;;5096404;28;20169;-70
2022/12/24 12:00:43;;;;;;;35.13;8.07;;;;;;;;;;5077763;28;20267;-70
2022/12/24 12:03:30;;;;;;;30.40;7.00;;;;;;;;;;5078119;28;20200;-70
2022/12/24 12:05:58;;;;;;;40.37;7.77;;;;;;;;;;5077846;28;20177;-70
2022/12/24 12:08:24;;;;;;;37.43;7.83;;;;;;;;;;5077979;28;20177;-70
2022/12/24 12:10:52;;;;;;;19.83;6.57;;;;;;;;;;5100592;28;20180;-70
2022/12/24 12:13:31;;;;;;;27.50;7.30;;;;;;;;;;5083895;28;20229;-69
2022/12/24 12:16:18;;;;;;;45.27;20.10;;;;;;;;;;5102748;28;20169;-71
2022/12/24 12:18:47;;;;;;;45.30;22.70;;;;;;;;;;5084170;28;20331;-70
2022/12/24 12:21:21;;;;;;;102.30;52.73;;;;;;;;;;5100292;28;20170;-70
2022/12/24 12:23:52;;;;;;;109.43;58.87;;;;;;;;;;5101584;28;20661;-71
2022/12/24 12:26:22;;;;;;;46.97;21.70;;;;;;;;;;5096762;28;20707;-70
2022/12/24 12:28:57;;;;;;;110.93;61.70;;;;;;;;;;5076147;28;20181;-70
2022/12/24 12:31:25;;;;;;;76.47;47.20;;;;;;;;;;5094300;28;20229;-70
2022/12/24 12:34:01;;;;;;;32.17;11.90;;;;;;;;;;5094363;28;20273;-70
2022/12/24 12:36:32;;;;;;;45.27;21.00;;;;;;;;;;5094384;28;20241;-70
2022/12/24 12:38:58;;;;;;;40.03;13.63;;;;;;;;;;5076358;28;20201;-70
2022/12/24 12:41:35;;;;;;;34.83;11.70;;;;;;;;;;5094834;28;20227;-70
2022/12/24 12:44:30;;;;;;;36.43;10.73;;;;;;;;;;5094968;28;20201;-70
2022/12/24 12:47:09;;;;;;;54.73;20.97;;;;;;;;;;5024575;28;20194;-70
2022/12/24 12:49:35;;;;;;;43.80;19.30;;;;;;;;;;5094963;28;20312;-70
2022/12/24 12:52:09;;;;;;;30.27;9.37;;;;;;;;;;5075826;28;20181;-70
2022/12/24 12:54:35;;;;;;;31.40;10.50;;;;;;;;;;5077104;28;20268;-70
2022/12/24 12:57:05;;;;;;;40.67;12.03;;;;;;;;;;5094637;28;20169;-69
2022/12/24 12:59:31;;;;;;;25.93;7.47;;;;;;;;;;5076255;28;20184;-70
2022/12/24 13:02:16;;;;;;;37.90;10.30;;;;;;;;;;5076520;28;20172;-69
2022/12/24 13:04:48;;;;;;;25.97;7.40;;;;;;;;;;5094558;28;20200;-70
2022/12/24 13:07:23;;;;;;;42.70;20.07;;;;;;;;;;5076283;28;20179;-70
2022/12/24 13:10:08;;;;;;;31.23;11.47;;;;;;;;;;5098560;28;20180;-70
2022/12/24 13:12:34;;;;;;;174.07;103.60;;;;;;;;;;5076150;28;20550;-70
2022/12/24 13:15:19;;;;;;;39.20;15.47;;;;;;;;;;5094004;28;20216;-70
2022/12/24 13:17:52;;;;;;;40.13;12.00;;;;;;;;;;5094181;28;20173;-70
2022/12/24 13:20:18;;;;;;;54.17;22.17;;;;;;;;;;5093810;28;20180;-70
2022/12/24 13:23:07;;;;;;;39.20;15.10;;;;;;;;;;5093849;28;20268;-70
2022/12/24 13:25:37;;;;;;;28.63;7.80;;;;;;;;;;5075571;28;20177;-70
2022/12/24 13:28:15;;;;;;;26.13;7.80;;;;;;;;;;5075409;28;20181;-70
2022/12/24 13:30:42;;;;;;;27.30;12.43;;;;;;;;;;5078209;28;20181;-71
2022/12/24 13:33:10;;;;;;;19.37;7.10;;;;;;;;;;5097507;28;20205;-71
2022/12/24 13:35:37;;;;;;;29.43;7.63;;;;;;;;;;5098230;28;20234;-71
2022/12/24 13:38:21;;;;;;;23.00;8.00;;;;;;;;;;5078965;28;20652;-71
2022/12/24 13:40:47;;;;;;;24.23;7.23;;;;;;;;;;5078858;28;20188;-71
2022/12/24 13:43:14;;;;;;;21.17;6.23;;;;;;;;;;5078805;28;20205;-70
2022/12/24 13:45:40;;;;;;;27.60;8.77;;;;;;;;;;5078872;28;20329;-70
2022/12/24 13:48:06;;;;;;;28.83;9.07;;;;;;;;;;5097097;28;20177;-70
2022/12/24 13:50:40;;;;;;;31.47;9.60;;;;;;;;;;5097423;28;20290;-69
2022/12/24 13:53:18;;;;;;;26.97;9.93;;;;;;;;;;5078447;28;20215;-70
2022/12/24 13:55:54;;;;;;;21.07;8.17;;;;;;;;;;5096771;28;20219;-70
2022/12/24 13:58:20;;;;;;;22.27;7.33;;;;;;;;;;5078569;28;20185;-70
2022/12/24 14:00:53;;;;;;;29.13;8.60;;;;;;;;;;5099709;28;20177;-69
2022/12/24 14:03:22;;;;;;;21.87;6.63;;;;;;;;;;5078779;28;20561;-70
2022/12/24 14:05:54;;;;;;;28.33;7.20;;;;;;;;;;5096905;28;20200;-70
2022/12/24 14:08:23;;;;;;;24.10;8.07;;;;;;;;;;5096798;28;20671;-71
2022/12/24 14:11:03;;;;;;;24.07;7.23;;;;;;;;;;5078249;28;20184;-70
2022/12/24 14:13:38;;;;;;;30.60;7.97;;;;;;;;;;5096657;28;20718;-70
2022/12/24 14:16:04;;;;;;;26.57;7.70;;;;;;;;;;5096765;28;20204;-70
2022/12/24 14:18:32;;;;;;;23.77;7.57;;;;;;;;;;5096370;28;20184;-70
2022/12/24 14:20:59;;;;;;;23.40;7.10;;;;;;;;;;5078185;28;20180;-70
2022/12/24 14:23:33;;;;;;;24.27;6.40;;;;;;;;;;5096129;28;20201;-70
2022/12/24 14:26:01;;;;;;;29.33;7.93;;;;;;;;;;5078146;28;20177;-70
2022/12/24 14:28:35;;;;;;;20.50;7.20;;;;;;;;;;5078477;28;20181;-70
2022/12/24 14:31:02;;;;;;;25.57;6.77;;;;;;;;;;5096253;28;20670;-70
2022/12/24 14:33:29;;;;;;;26.20;7.60;;;;;;;;;;5095994;28;20211;-70
2022/12/24 14:35:54;;;;;;;24.47;6.23;;;;;;;;;;5061358;28;20188;-70
2022/12/24 14:38:21;;;;;;;31.57;7.77;;;;;;;;;;5096432;28;20536;-71
2022/12/24 14:40:53;;;;;;;25.57;7.50;;;;;;;;;;5077708;28;20170;-71
2022/12/24 14:43:26;;;;;;;23.37;7.40;;;;;;;;;;5096212;28;20558;-70
2022/12/24 14:46:10;;;;;;;23.07;8.13;;;;;;;;;;5077983;28;20181;-71
2022/12/24 14:48:39;;;;;;;26.60;8.57;;;;;;;;;;5078078;28;20790;-70